Fish Creek, WI

12:49 AM CDT on September 15, 2014 (GMT -0500)
Door County Cherryland | Change Station
CLOSE
Current Station
Airport
Location: Sturgeon Bay,
Elevation: 725 ft
Nearby Weather Stations

Elev 725 ft 44.84 °N, 87.42 °W | Updated 14 minutes ago

Partly Cloudy
Partly Cloudy
55 °F
Feels Like 55 °F
N
5
Wind Variable Wind from West

Today
High -- | Low -- °F
--% Chance of Precip.
Yesterday
High -- | Low -- °F
Precip. -- in
6:27 AM 6:59 PM
Waning Gibbous, 58% visible
Pressure 30.11 in
Visibility 10.0 miles
Clouds Mostly Cloudy 7000 ft
Dew Point 48 °F
Humidity 77%
Rainfall 0.00 in
Snow Depth Not available.
UV 0 out of 12
Pollen 4.40 out of 12
Air Quality Not available.
Flu Activity Not available.
METAR KSUE 150535Z AUTO 26004KT 10SM BKN070 13/09 A3011 RMK AO1

More Conditions Fewer Conditions

Pressure 30.11 in
Visibility 10.0 miles
Clouds Mostly Cloudy 7000 ft
Dew Point 48 °F
Humidity 77%
Rainfall 0.00 in
Snow Depth Not available.
UV 0 out of 12
Pollen 4.40 out of 12
Air Quality Not available.
Flu Activity Not available.
METAR KSUE 150535Z AUTO 26004KT 10SM BKN070 13/09 A3011 RMK AO1

More Conditions Fewer Conditions

10-Day Weather Forecast

Almanac

Astronomy

Sep. 15, 2014 Rise Set
Actual Time 6:27 AM CDT 6:59 PM CDT
Civil Twilight 5:57 AM CDT 7:29 PM CDT
Nautical Twilight 5:22 AM CDT 8:04 PM CDT
Astronomical Twilight 4:46 AM CDT 8:40 PM CDT
Moon 11:26 PM CDT 1:43 PM CDT
Length of Visible Light 13h 31m
Length of Day
12h 32m
Tomorrow will be 3m 7s shorter.
Waning Gibbous, 58% of the Moon is Illuminated
Today
Waning Gibbous
Sep 15
Last Quarter
Sep 24
New
Oct 1
First Quarter
Oct 8
Full

Today's Extremes

State Highs State Lows

Community

WunderPhotos

Upload Photos

1,753,416 photos uploaded!

WunderBlogs® & News

Nearby

Snow Depth

Station Depth Elevation
No new snow has been reported.

Earthquake Activity

City Distance Mag. Time & Date
No recent earthquake activity has been reported nearby.
Minimum magnitude displayed is 2.5.

Coastal Water Temperatures

Place Temperature
Menominee, MI 62.1 °F

Nearby Weather Stations